createdAt,value
2018-08-12T14:15:25.728Z,44.75
2018-08-12T14:18:54.800Z,44.59
2018-08-12T14:21:32.131Z,44.86
2018-08-12T14:24:09.744Z,43.59
2018-08-12T14:26:47.174Z,43.62
2018-08-12T14:29:24.753Z,42.85
2018-08-12T14:32:02.761Z,43.37
2018-08-12T14:34:39.535Z,43.21
2018-08-12T14:37:15.066Z,43.10
2018-08-12T14:39:48.657Z,42.77
2018-08-12T14:42:24.531Z,43.33
2018-08-12T14:45:00.862Z,42.46
2018-08-12T14:47:38.468Z,42.69
2018-08-12T14:50:19.444Z,42.11
2018-08-12T14:52:55.332Z,41.75
2018-08-12T14:55:31.599Z,42.16
2018-08-12T14:58:07.871Z,41.38
2018-08-12T15:00:43.970Z,42.01
2018-08-12T15:03:21.525Z,41.17
2018-08-12T15:05:58.565Z,41.56
2018-08-12T15:08:36.651Z,41.70
2018-08-12T15:11:13.650Z,41.02
2018-08-12T15:13:49.751Z,40.66
2018-08-12T15:16:26.748Z,40.69
2018-08-12T15:19:03.020Z,42.35
2018-08-12T15:21:39.098Z,40.62
2018-08-12T15:24:15.342Z,40.74
2018-08-12T15:26:51.458Z,41.16
2018-08-12T15:29:27.878Z,40.17
2018-08-12T15:32:03.977Z,40.26
2018-08-12T15:34:45.252Z,40.43
2018-08-12T15:37:23.576Z,40.61
2018-08-12T15:40:05.183Z,40.02
2018-08-12T15:42:42.337Z,40.87
2018-08-12T15:45:20.097Z,40.91
2018-08-12T15:47:56.260Z,40.81
2018-08-12T15:50:32.390Z,39.81
2018-08-12T15:53:10.229Z,39.81
2018-08-12T15:55:45.965Z,41.04
2018-08-12T15:58:22.043Z,39.94
2018-08-12T16:00:58.179Z,40.89
2018-08-12T16:03:34.511Z,41.49
2018-08-12T16:06:12.315Z,41.50
2018-08-12T16:08:48.791Z,41.36
2018-08-12T16:11:25.770Z,41.24
2018-08-12T16:14:01.816Z,40.66
2018-08-12T16:16:38.037Z,40.67
2018-08-12T16:19:14.186Z,41.21
2018-08-12T16:21:51.417Z,41.11
2018-08-12T16:24:27.774Z,41.44
2018-08-12T16:27:03.973Z,41.03
2018-08-12T16:29:39.840Z,41.23
2018-08-12T16:32:16.116Z,40.93
2018-08-12T16:34:50.195Z,40.85
2018-08-12T16:37:26.532Z,41.21
2018-08-12T16:40:02.899Z,40.12
2018-08-12T16:42:40.136Z,40.89
2018-08-12T16:45:16.511Z,41.11
2018-08-12T16:47:52.815Z,40.73
2018-08-12T16:50:30.128Z,40.67
2018-08-12T16:53:06.580Z,40.87
2018-08-12T16:55:42.955Z,39.82
2018-08-12T16:58:19.473Z,40.60
2018-08-12T17:00:55.597Z,39.93
2018-08-12T17:03:31.828Z,39.72
2018-08-12T17:06:05.829Z,39.63
2018-08-12T17:08:43.233Z,39.59
2018-08-12T17:11:20.912Z,39.60
2018-08-12T17:13:57.043Z,39.93
2018-08-12T17:16:32.802Z,40.10
2018-08-12T17:19:10.257Z,40.77
2018-08-12T17:21:45.993Z,39.99
2018-08-12T17:24:21.732Z,40.12
2018-08-12T17:27:00.019Z,40.46
2018-08-12T17:29:33.735Z,40.28
2018-08-12T17:32:11.270Z,39.96
2018-08-12T17:34:48.005Z,40.04
2018-08-12T17:37:21.722Z,39.93
2018-08-12T17:39:57.805Z,39.77
2018-08-12T17:42:33.615Z,39.99
2018-08-12T17:45:10.599Z,39.69
2018-08-12T17:49:37.061Z,40.06
2018-08-12T17:52:12.709Z,40.10
2018-08-12T17:54:48.547Z,39.86
2018-08-12T17:57:24.445Z,39.68
2018-08-12T18:00:02.364Z,39.10
2018-08-12T18:02:38.272Z,40.34
2018-08-12T18:05:14.081Z,40.00
2018-08-12T18:07:49.804Z,39.98
2018-08-12T18:10:28.018Z,40.37
2018-08-12T18:13:04.819Z,39.97
2018-08-12T18:15:40.541Z,40.49
2018-08-12T18:18:16.590Z,40.68
2018-08-12T18:20:52.334Z,40.02
2018-08-12T18:23:28.163Z,39.98
2018-08-12T18:26:05.083Z,40.43
2018-08-12T18:28:41.049Z,39.89
2018-08-12T18:31:16.859Z,40.03
2018-08-12T18:33:52.828Z,40.17
2018-08-12T18:36:28.614Z,39.96
2018-08-12T18:39:04.630Z,39.41
2018-08-12T18:41:41.549Z,40.23
2018-08-12T18:44:17.163Z,40.45
2018-08-12T18:46:52.943Z,39.81
2018-08-12T18:49:29.842Z,40.73
2018-08-12T18:52:06.519Z,39.88
2018-08-12T18:54:42.341Z,40.11
2018-08-12T18:57:18.154Z,39.41
2018-08-12T18:59:53.818Z,40.68
2018-08-12T19:02:29.567Z,40.15
2018-08-12T19:05:06.091Z,40.68
2018-08-12T19:07:43.295Z,40.10
2018-08-12T19:10:19.095Z,39.66
2018-08-12T19:12:54.835Z,40.68
2018-08-12T19:15:30.585Z,39.53
2018-08-12T19:18:07.730Z,39.75
2018-08-12T19:20:43.220Z,40.77
2018-08-12T19:23:19.082Z,39.73
2018-08-12T19:25:54.629Z,40.65
2018-08-12T19:28:31.272Z,39.75
2018-08-12T19:31:06.844Z,40.23
2018-08-12T19:33:42.739Z,39.95
2018-08-12T19:36:19.880Z,39.96
2018-08-12T19:38:55.632Z,40.59
2018-08-12T19:41:32.971Z,40.74
2018-08-12T19:44:10.741Z,40.20
2018-08-12T19:46:46.681Z,40.51
2018-08-12T19:49:20.762Z,40.65
2018-08-12T19:51:56.746Z,39.70
2018-08-12T19:54:34.271Z,40.25
2018-08-12T19:57:11.121Z,39.66
2018-08-12T19:59:47.284Z,40.01
2018-08-12T20:02:23.345Z,39.97
2018-08-12T20:04:58.471Z,40.36
2018-08-12T20:07:35.639Z,40.80
2018-08-12T20:10:14.285Z,40.89
2018-08-12T20:12:49.855Z,39.94
2018-08-12T20:15:25.879Z,40.71
2018-08-12T20:18:02.688Z,39.82
2018-08-12T20:20:39.591Z,40.41
2018-08-12T20:23:16.114Z,39.81
2018-08-12T20:25:52.248Z,39.71
2018-08-12T20:28:25.979Z,40.03
2018-08-12T20:31:03.609Z,40.10
2018-08-12T20:33:39.401Z,39.85
2018-08-12T20:36:15.342Z,39.25
2018-08-12T20:41:39.055Z,38.76
2018-08-12T20:44:16.206Z,38.42
2018-08-12T20:46:50.047Z,38.54
2018-08-12T20:49:26.350Z,38.83
2018-08-12T20:52:02.255Z,38.58
2018-08-12T20:57:31.351Z,38.60
2018-08-12T21:00:05.059Z,37.34
2018-08-12T21:02:38.874Z,38.09
2018-08-12T21:05:15.544Z,37.17
2018-08-12T21:07:52.720Z,38.32
2018-08-12T21:10:28.884Z,36.82
2018-08-12T21:13:05.929Z,37.67
2018-08-12T21:18:25.214Z,37.65
2018-08-12T21:21:01.076Z,37.61
2018-08-12T21:23:37.004Z,37.58
2018-08-12T21:26:12.955Z,37.46
2018-08-12T21:28:50.128Z,37.52
2018-08-12T21:31:26.883Z,37.76
2018-08-12T21:34:02.916Z,36.66
2018-08-12T21:36:38.713Z,37.09
2018-08-12T21:39:16.729Z,37.32
2018-08-12T21:41:52.720Z,37.84
2018-08-12T21:44:28.692Z,36.89
2018-08-12T21:47:05.818Z,37.47
2018-08-12T21:49:41.380Z,37.32
2018-08-12T21:52:17.152Z,37.11
2018-08-12T21:54:53.913Z,37.11
2018-08-12T21:57:30.662Z,37.10
2018-08-12T22:00:06.945Z,36.51
2018-08-12T22:02:42.888Z,37.11
2018-08-12T22:05:16.642Z,37.16
2018-08-12T22:07:53.913Z,37.88
2018-08-12T22:10:29.733Z,36.67
2018-08-12T22:13:07.927Z,37.03
2018-08-12T22:15:45.510Z,37.05
2018-08-12T22:18:21.164Z,36.54
2018-08-12T22:20:58.094Z,37.68
2018-08-12T22:23:31.861Z,36.82
2018-08-12T22:26:07.688Z,36.97
2018-08-12T22:28:43.913Z,36.52
2018-08-12T22:31:19.929Z,36.51
2018-08-12T22:33:56.783Z,37.28
2018-08-12T22:36:32.697Z,36.53
2018-08-12T22:42:09.342Z,36.88
2018-08-12T22:44:45.620Z,37.66
2018-08-12T22:47:21.568Z,36.57
2018-08-12T22:49:59.135Z,36.91
2018-08-12T22:52:34.942Z,37.35
2018-08-12T22:55:12.256Z,36.97
2018-08-12T22:57:49.351Z,36.94
2018-08-12T23:00:28.636Z,37.02
2018-08-12T23:03:06.915Z,36.87
2018-08-12T23:05:42.773Z,37.09
2018-08-12T23:08:19.108Z,36.80
2018-08-12T23:10:55.680Z,37.04
2018-08-12T23:13:33.905Z,36.78
2018-08-12T23:16:27.280Z,37.52
2018-08-12T23:19:03.677Z,37.59
2018-08-12T23:21:39.355Z,37.05
2018-08-12T23:24:15.981Z,36.98
2018-08-12T23:26:52.918Z,37.26
2018-08-12T23:29:30.681Z,37.46
2018-08-12T23:32:08.928Z,36.83
2018-08-12T23:34:44.926Z,36.20
2018-08-12T23:37:21.255Z,37.39
2018-08-12T23:39:57.369Z,37.19
2018-08-12T23:42:35.328Z,37.23
2018-08-12T23:45:11.951Z,37.25
2018-08-12T23:47:49.410Z,37.10
2018-08-12T23:50:25.115Z,36.69
2018-08-12T23:53:01.075Z,37.33
2018-08-12T23:58:32.937Z,36.72
